createdAt,value
2018-01-25T00:00:29.569Z,1008.65
2018-01-25T00:01:38.402Z,1008.66
2018-01-25T00:02:47.508Z,1008.59
2018-01-25T00:03:56.440Z,1008.63
2018-01-25T00:05:05.545Z,1008.61
2018-01-25T00:06:14.377Z,1008.63
2018-01-25T00:07:23.207Z,1008.57
2018-01-25T00:08:32.037Z,1008.59
2018-01-25T00:09:40.868Z,1008.64
2018-01-25T00:10:49.700Z,1008.67
2018-01-25T00:11:58.801Z,1008.71
2018-01-25T00:13:07.633Z,1008.7
2018-01-25T00:14:16.748Z,1008.72
2018-01-25T00:15:25.678Z,1008.72
2018-01-25T00:16:34.510Z,1008.7
2018-01-25T00:17:43.618Z,1008.72
2018-01-25T00:18:52.451Z,1008.74
2018-01-25T00:20:01.285Z,1008.71
2018-01-25T00:21:10.268Z,1008.65
2018-01-25T00:22:19.099Z,1008.65
2018-01-25T00:23:27.929Z,1008.67
2018-01-25T00:24:36.760Z,1008.62
2018-01-25T00:25:45.592Z,1008.63
2018-01-25T00:26:54.424Z,1008.65
2018-01-25T00:28:03.258Z,1008.66
2018-01-25T00:29:12.090Z,1008.61
2018-01-25T00:30:20.920Z,1008.58
2018-01-25T00:31:29.756Z,1008.62
2018-01-25T00:32:38.588Z,1008.58
2018-01-25T00:33:47.423Z,1008.58
2018-01-25T00:34:56.249Z,1008.6
2018-01-25T00:36:05.081Z,1008.65
2018-01-25T00:37:13.909Z,1008.59
2018-01-25T00:38:23.093Z,1008.65
2018-01-25T00:39:31.924Z,1008.58
2018-01-25T00:40:40.757Z,1008.58
2018-01-25T00:41:49.588Z,1008.56
2018-01-25T00:42:58.417Z,1008.63
2018-01-25T00:44:07.353Z,1008.66
2018-01-25T00:45:16.184Z,1008.61
2018-01-25T00:46:25.015Z,1008.61
2018-01-25T00:47:33.847Z,1008.64
2018-01-25T00:48:42.680Z,1008.62
2018-01-25T00:49:51.513Z,1008.63
2018-01-25T00:51:00.623Z,1008.63
2018-01-25T00:52:09.452Z,1008.58
2018-01-25T00:53:18.291Z,1008.62
2018-01-25T00:54:27.124Z,1008.55
2018-01-25T00:55:35.953Z,1008.65
2018-01-25T00:56:44.785Z,1008.59
2018-01-25T00:57:53.891Z,1008.57
2018-01-25T00:59:02.723Z,1008.6
2018-01-25T01:00:11.827Z,1008.62
2018-01-25T01:01:20.756Z,1008.58
2018-01-25T01:02:29.865Z,1008.61
2018-01-25T01:03:38.967Z,1008.66
2018-01-25T01:04:47.798Z,1008.6
2018-01-25T01:05:56.916Z,1008.62
2018-01-25T01:07:06.318Z,1008.59
2018-01-25T01:08:15.149Z,1008.62
2018-01-25T01:09:23.980Z,1008.61
2018-01-25T01:10:32.813Z,1008.63
2018-01-25T01:11:41.644Z,1008.69
2018-01-25T01:12:50.776Z,1008.67
2018-01-25T01:13:59.607Z,1008.77
2018-01-25T01:15:08.442Z,1008.75
2018-01-25T01:16:17.272Z,1008.75
2018-01-25T01:17:26.378Z,1008.75
2018-01-25T01:18:35.365Z,1008.73
2018-01-25T01:19:44.192Z,1008.79
2018-01-25T01:20:53.025Z,1008.85
2018-01-25T01:22:01.857Z,1008.9
2018-01-25T01:23:10.962Z,1008.94
2018-01-25T01:24:19.794Z,1008.88
2018-01-25T01:25:28.623Z,1008.89
2018-01-25T01:26:37.725Z,1008.87
2018-01-25T01:27:46.557Z,1008.88
2018-01-25T01:28:55.388Z,1008.86
2018-01-25T01:30:04.376Z,1008.82
2018-01-25T01:31:13.210Z,1008.84
2018-01-25T01:32:22.039Z,1008.91
2018-01-25T01:33:30.872Z,1008.94
2018-01-25T01:34:39.705Z,1008.93
2018-01-25T01:35:48.639Z,1008.98
2018-01-25T01:36:57.745Z,1009.01
2018-01-25T01:38:06.571Z,1008.95
2018-01-25T01:39:15.400Z,1008.98
2018-01-25T01:40:24.230Z,1008.97
2018-01-25T01:41:33.061Z,1008.91
2018-01-25T01:42:41.891Z,1008.99
2018-01-25T01:43:50.718Z,1009.05
2018-01-25T01:44:59.550Z,1009.06
2018-01-25T01:46:08.383Z,1009.1
2018-01-25T01:47:17.313Z,1009.11
2018-01-25T01:48:26.143Z,1009.21
2018-01-25T01:49:34.972Z,1009.3
2018-01-25T01:50:43.801Z,1009.39
2018-01-25T01:51:52.634Z,1009.52
2018-01-25T01:53:01.515Z,1009.56
2018-01-25T01:54:10.345Z,1009.57
2018-01-25T01:55:19.175Z,1009.61
2018-01-25T01:56:28.003Z,1009.54
2018-01-25T01:57:36.844Z,1009.54
2018-01-25T01:58:45.774Z,1009.56
2018-01-25T01:59:54.605Z,1009.5
2018-01-25T02:01:03.437Z,1009.51
2018-01-25T02:02:12.267Z,1009.48
2018-01-25T02:03:21.099Z,1009.48
2018-01-25T02:04:30.077Z,1009.43
2018-01-25T02:05:38.907Z,1009.47
2018-01-25T02:06:47.738Z,1009.39
2018-01-25T02:07:56.570Z,1009.41
2018-01-25T02:09:05.402Z,1009.58
2018-01-25T02:10:14.230Z,1009.63
2018-01-25T02:11:23.058Z,1009.82
2018-01-25T02:12:31.888Z,1009.87
2018-01-25T02:13:40.719Z,1009.93
2018-01-25T02:14:49.546Z,1009.97
2018-01-25T02:15:58.676Z,1009.88
2018-01-25T02:17:07.506Z,1009.84
2018-01-25T02:18:16.337Z,1009.74
2018-01-25T02:19:25.167Z,1009.62
2018-01-25T02:20:33.997Z,1009.5
2018-01-25T02:21:43.129Z,1009.52
2018-01-25T02:22:51.957Z,1009.59
2018-01-25T02:24:01.061Z,1009.49
2018-01-25T02:25:09.892Z,1009.44
2018-01-25T02:26:18.993Z,1009.39
2018-01-25T02:27:27.826Z,1009.36
2018-01-25T02:28:36.651Z,1009.44
2018-01-25T02:29:45.482Z,1009.6
2018-01-25T02:30:54.310Z,1009.72
2018-01-25T02:32:03.146Z,1009.8
2018-01-25T02:33:12.177Z,1009.95
2018-01-25T02:34:21.002Z,1010.03
2018-01-25T02:35:29.833Z,1009.96
2018-01-25T02:36:38.661Z,1009.88
2018-01-25T02:37:47.492Z,1009.77
2018-01-25T02:38:56.428Z,1009.75
2018-01-25T02:40:05.253Z,1009.76
2018-01-25T02:41:14.091Z,1009.67
2018-01-25T02:42:22.921Z,1009.55
2018-01-25T02:43:31.751Z,1009.54
2018-01-25T02:44:40.831Z,1009.67
2018-01-25T02:45:49.659Z,1009.8
2018-01-25T02:46:58.489Z,1009.88
2018-01-25T02:48:07.318Z,1009.89
2018-01-25T02:49:16.146Z,1009.85
2018-01-25T02:50:24.976Z,1009.75
2018-01-25T02:51:33.808Z,1009.65
2018-01-25T02:52:42.638Z,1009.46
2018-01-25T02:53:51.741Z,1009.33
2018-01-25T02:55:00.569Z,1009.3
2018-01-25T02:56:09.671Z,1009.29
2018-01-25T02:57:18.500Z,1009.35
2018-01-25T02:58:27.331Z,1009.35
2018-01-25T02:59:36.161Z,1009.34
2018-01-25T03:00:44.989Z,1009.38
2018-01-25T03:01:54.118Z,1009.35
2018-01-25T03:03:02.946Z,1009.37
2018-01-25T03:04:11.774Z,1009.5
2018-01-25T03:05:20.604Z,1009.55
2018-01-25T03:06:29.441Z,1009.62
2018-01-25T03:07:38.321Z,1009.68
2018-01-25T03:08:47.153Z,1009.64
2018-01-25T03:09:55.985Z,1009.74
2018-01-25T03:11:04.813Z,1009.88
2018-01-25T03:12:13.650Z,1009.98
2018-01-25T03:13:22.724Z,1010.01
2018-01-25T03:14:31.554Z,1010.05
2018-01-25T03:15:40.659Z,1010.11
2018-01-25T03:16:49.486Z,1010.2
2018-01-25T03:17:58.315Z,1010.17
2018-01-25T03:19:07.147Z,1010.19
2018-01-25T03:20:15.977Z,1010.17
2018-01-25T03:21:24.804Z,1010.12
2018-01-25T03:22:33.635Z,1010.1
2018-01-25T03:23:42.465Z,1010.06
2018-01-25T03:24:51.444Z,1010.01
2018-01-25T03:26:00.275Z,1009.98
2018-01-25T03:27:09.103Z,1010.01
2018-01-25T03:28:17.935Z,1010.05
2018-01-25T03:29:26.766Z,1010.06
2018-01-25T03:30:35.896Z,1010.05
2018-01-25T03:31:44.727Z,1010.01
2018-01-25T03:32:53.557Z,1010.04
2018-01-25T03:34:02.388Z,1010.01
2018-01-25T03:35:11.219Z,1010
2018-01-25T03:36:20.198Z,1009.98
2018-01-25T03:37:29.028Z,1010
2018-01-25T03:38:37.860Z,1010.07
2018-01-25T03:39:46.691Z,1010.01
2018-01-25T03:40:55.523Z,1009.99
2018-01-25T03:42:04.354Z,1009.99
2018-01-25T03:43:13.183Z,1010.02
2018-01-25T03:44:22.010Z,1010.07
2018-01-25T03:45:30.841Z,1010.06
2018-01-25T03:46:39.673Z,1010.04
2018-01-25T03:47:48.754Z,1010.07
2018-01-25T03:48:57.583Z,1010.13
2018-01-25T03:50:06.414Z,1010.08
2018-01-25T03:51:15.243Z,1010.08
2018-01-25T03:52:24.071Z,1010.19
2018-01-25T03:53:32.901Z,1010.2
2018-01-25T03:54:41.733Z,1010.21
2018-01-25T03:55:50.563Z,1010.16
2018-01-25T03:56:59.392Z,1010.26
2018-01-25T03:58:08.219Z,1010.27
2018-01-25T03:59:17.151Z,1010.23
2018-01-25T04:00:25.982Z,1010.16
2018-01-25T04:01:35.090Z,1010.22
2018-01-25T04:02:43.920Z,1010.2
2018-01-25T04:03:52.747Z,1010.23
2018-01-25T04:05:02.249Z,1010.24
2018-01-25T04:06:11.360Z,1010.23
2018-01-25T04:07:20.187Z,1010.27
2018-01-25T04:08:29.017Z,1010.37
2018-01-25T04:09:37.845Z,1010.43
2018-01-25T04:10:46.977Z,1010.45
2018-01-25T04:11:55.805Z,1010.43
2018-01-25T04:13:04.635Z,1010.55
2018-01-25T04:14:13.467Z,1010.49
2018-01-25T04:15:22.298Z,1010.52
2018-01-25T04:16:31.131Z,1010.47
2018-01-25T04:17:39.955Z,1010.43
2018-01-25T04:18:48.784Z,1010.49
2018-01-25T04:19:57.618Z,1010.48
2018-01-25T04:21:07.009Z,1010.49
2018-01-25T04:22:15.938Z,1010.42
2018-01-25T04:23:24.771Z,1010.49
2018-01-25T04:24:33.601Z,1010.49
2018-01-25T04:25:42.431Z,1010.48
2018-01-25T04:26:51.263Z,1010.39
2018-01-25T04:28:00.194Z,1010.4
2018-01-25T04:29:09.027Z,1010.47
2018-01-25T04:30:17.853Z,1010.42
2018-01-25T04:31:26.686Z,1010.38
2018-01-25T04:32:35.517Z,1010.38
2018-01-25T04:33:44.448Z,1010.49
2018-01-25T04:34:53.277Z,1010.49
2018-01-25T04:36:02.105Z,1010.56
2018-01-25T04:37:10.936Z,1010.49
2018-01-25T04:38:19.762Z,1010.55
2018-01-25T04:39:29.016Z,1010.48
2018-01-25T04:40:37.846Z,1010.5
2018-01-25T04:41:46.677Z,1010.51
2018-01-25T04:42:55.509Z,1010.41
2018-01-25T04:44:04.342Z,1010.39
2018-01-25T04:45:13.542Z,1010.49
2018-01-25T04:46:22.370Z,1010.6
2018-01-25T04:47:31.199Z,1010.53
2018-01-25T04:48:40.030Z,1010.49
2018-01-25T04:49:48.857Z,1010.4
2018-01-25T04:50:57.686Z,1010.43
2018-01-25T04:52:06.517Z,1010.47
2018-01-25T04:53:15.348Z,1010.46
2018-01-25T04:54:24.178Z,1010.45
2018-01-25T04:55:33.006Z,1010.51
2018-01-25T04:56:41.835Z,1010.53
2018-01-25T04:57:50.666Z,1010.51
2018-01-25T04:58:59.495Z,1010.56
2018-01-25T05:00:08.326Z,1010.61
2018-01-25T05:01:17.154Z,1010.65
2018-01-25T05:02:26.234Z,1010.69
2018-01-25T05:03:35.065Z,1010.74
2018-01-25T05:04:43.896Z,1010.75
2018-01-25T05:05:52.724Z,1010.68
2018-01-25T05:07:01.553Z,1010.71
2018-01-25T05:08:10.634Z,1010.76
2018-01-25T05:09:19.462Z,1010.74
2018-01-25T05:10:28.290Z,1010.77
2018-01-25T05:11:37.120Z,1010.74
2018-01-25T05:12:45.949Z,1010.75
2018-01-25T05:13:54.878Z,1010.76
2018-01-25T05:15:03.708Z,1010.67
2018-01-25T05:16:12.543Z,1010.79
2018-01-25T05:17:21.373Z,1010.85
2018-01-25T05:18:30.209Z,1010.84
2018-01-25T05:19:39.436Z,1010.88
2018-01-25T05:20:48.265Z,1010.84
2018-01-25T05:21:57.095Z,1010.84
2018-01-25T05:23:05.923Z,1010.83
2018-01-25T05:24:14.759Z,1010.87
2018-01-25T05:25:23.736Z,1010.87
2018-01-25T05:26:32.569Z,1010.92
2018-01-25T05:27:41.945Z,1010.9
2018-01-25T05:28:50.774Z,1010.89
2018-01-25T05:29:59.606Z,1010.89
2018-01-25T05:31:08.585Z,1010.92
2018-01-25T05:32:17.416Z,1010.92
2018-01-25T05:33:26.246Z,1011.01
2018-01-25T05:34:35.073Z,1010.95
2018-01-25T05:35:43.902Z,1011
2018-01-25T05:36:52.832Z,1011
2018-01-25T05:38:01.660Z,1010.98
2018-01-25T05:39:10.490Z,1011.06
2018-01-25T05:40:19.332Z,1011.05
2018-01-25T05:41:28.153Z,1011.02
2018-01-25T05:42:36.986Z,1011.07
2018-01-25T05:43:45.815Z,1010.98
2018-01-25T05:44:54.643Z,1011.05
2018-01-25T05:46:03.750Z,1010.97
2018-01-25T05:47:12.852Z,1010.99
2018-01-25T05:48:21.686Z,1011.03
2018-01-25T05:49:30.786Z,1011
2018-01-25T05:50:39.616Z,1011.01
2018-01-25T05:51:48.448Z,1010.98
2018-01-25T05:52:57.278Z,1011.02
2018-01-25T05:54:06.108Z,1011.01
2018-01-25T05:55:14.939Z,1010.97
2018-01-25T05:56:23.768Z,1010.98
2018-01-25T05:57:32.599Z,1010.99
2018-01-25T05:58:41.428Z,1010.98
2018-01-25T05:59:50.680Z,1011.01
2018-01-25T06:00:59.510Z,1011.05
2018-01-25T06:02:08.341Z,1011.03
2018-01-25T06:03:17.172Z,1011.04
2018-01-25T06:04:26.002Z,1011.05
2018-01-25T06:05:34.831Z,1011.07
2018-01-25T06:06:43.663Z,1011.05
2018-01-25T06:07:52.491Z,1011.1
2018-01-25T06:09:01.321Z,1011.06
2018-01-25T06:10:10.150Z,1011.1
2018-01-25T06:11:19.258Z,1011.08
2018-01-25T06:12:28.090Z,1011.12
2018-01-25T06:13:36.920Z,1011.1
2018-01-25T06:14:45.750Z,1011.1
2018-01-25T06:15:54.582Z,1011.13
2018-01-25T06:17:03.464Z,1011.09
2018-01-25T06:18:12.298Z,1011.17
2018-01-25T06:19:21.416Z,1011.19
2018-01-25T06:20:30.244Z,1011.2
2018-01-25T06:21:39.079Z,1011.24
2018-01-25T06:22:48.003Z,1011.23
2018-01-25T06:23:56.832Z,1011.3
2018-01-25T06:25:05.659Z,1011.26
2018-01-25T06:26:14.488Z,1011.3
2018-01-25T06:27:23.316Z,1011.28
2018-01-25T06:28:32.146Z,1011.33
2018-01-25T06:29:40.974Z,1011.34
2018-01-25T06:30:49.804Z,1011.37
2018-01-25T06:31:58.633Z,1011.33
2018-01-25T06:33:07.463Z,1011.33
2018-01-25T06:34:16.494Z,1011.3
2018-01-25T06:35:25.323Z,1011.33
2018-01-25T06:36:34.151Z,1011.31
2018-01-25T06:37:42.981Z,1011.4
2018-01-25T06:38:51.812Z,1011.38
2018-01-25T06:40:00.892Z,1011.38
2018-01-25T06:41:09.723Z,1011.48
2018-01-25T06:42:18.824Z,1011.42
2018-01-25T06:43:27.658Z,1011.41
2018-01-25T06:44:36.490Z,1011.41
2018-01-25T06:45:45.322Z,1011.37
2018-01-25T06:46:54.153Z,1011.47
2018-01-25T06:48:02.982Z,1011.38
2018-01-25T06:49:11.811Z,1011.46
2018-01-25T06:50:20.642Z,1011.48
2018-01-25T06:51:29.796Z,1011.47
2018-01-25T06:52:38.627Z,1011.49
2018-01-25T06:53:47.456Z,1011.49
2018-01-25T06:54:56.286Z,1011.48
2018-01-25T06:56:05.171Z,1011.45
2018-01-25T06:57:14.094Z,1011.51
2018-01-25T06:58:22.925Z,1011.48
2018-01-25T06:59:31.811Z,1011.47
2018-01-25T07:00:40.859Z,1011.52
2018-01-25T07:01:49.684Z,1011.45
2018-01-25T07:02:58.814Z,1011.4
2018-01-25T07:04:07.643Z,1011.46
2018-01-25T07:05:16.472Z,1011.46
2018-01-25T07:06:25.300Z,1011.53
2018-01-25T07:07:34.130Z,1011.51
2018-01-25T07:08:43.112Z,1011.56
2018-01-25T07:09:51.944Z,1011.58
2018-01-25T07:11:01.055Z,1011.61
2018-01-25T07:12:10.171Z,1011.59
2018-01-25T07:13:18.994Z,1011.57
2018-01-25T07:14:28.126Z,1011.52
2018-01-25T07:15:36.957Z,1011.58
2018-01-25T07:16:46.058Z,1011.56
2018-01-25T07:17:54.889Z,1011.57
2018-01-25T07:19:03.721Z,1011.54
2018-01-25T07:20:13.099Z,1011.6
2018-01-25T07:21:21.931Z,1011.57
2018-01-25T07:22:30.762Z,1011.62
2018-01-25T07:23:39.592Z,1011.66
2018-01-25T07:24:48.419Z,1011.61
2018-01-25T07:25:57.250Z,1011.66
2018-01-25T07:27:06.079Z,1011.68
2018-01-25T07:28:14.911Z,1011.65
2018-01-25T07:29:23.742Z,1011.68
2018-01-25T07:30:32.573Z,1011.66
2018-01-25T07:31:41.551Z,1011.7
2018-01-25T07:32:50.384Z,1011.68
2018-01-25T07:33:59.492Z,1011.63
2018-01-25T07:35:08.355Z,1011.71
2018-01-25T07:36:17.155Z,1011.71
2018-01-25T07:37:26.136Z,1011.69
2018-01-25T07:38:34.964Z,1011.68
2018-01-25T07:39:43.794Z,1011.65
2018-01-25T07:40:52.898Z,1011.69
2018-01-25T07:42:01.736Z,1011.7
2018-01-25T07:43:10.560Z,1011.76
2018-01-25T07:44:19.392Z,1011.75
2018-01-25T07:45:28.222Z,1011.74
2018-01-25T07:46:37.055Z,1011.79
2018-01-25T07:47:45.881Z,1011.72
2018-01-25T07:48:54.912Z,1011.72
2018-01-25T07:50:03.742Z,1011.66
2018-01-25T07:51:12.572Z,1011.68
2018-01-25T07:52:21.403Z,1011.69
2018-01-25T07:53:30.233Z,1011.68
2018-01-25T07:54:39.115Z,1011.7
2018-01-25T07:55:47.942Z,1011.74
2018-01-25T07:56:56.772Z,1011.79
2018-01-25T07:58:05.604Z,1011.81
2018-01-25T07:59:14.435Z,1011.87
2018-01-25T08:00:23.264Z,1011.82
2018-01-25T08:01:32.379Z,1011.82
2018-01-25T08:02:41.211Z,1011.81
2018-01-25T08:03:50.044Z,1011.89
2018-01-25T08:04:58.875Z,1011.87
2018-01-25T08:06:07.805Z,1011.86
2018-01-25T08:07:16.638Z,1011.85
2018-01-25T08:08:25.467Z,1011.85
2018-01-25T08:09:34.351Z,1011.87
2018-01-25T08:10:43.127Z,1011.9
2018-01-25T08:11:52.058Z,1011.86
2018-01-25T08:13:00.890Z,1011.87
2018-01-25T08:14:09.996Z,1011.89
2018-01-25T08:15:18.827Z,1011.87
2018-01-25T08:16:27.662Z,1011.9
2018-01-25T08:17:36.641Z,1011.81
2018-01-25T08:18:45.472Z,1011.84
2018-01-25T08:19:54.303Z,1011.85
2018-01-25T08:21:03.135Z,1011.84
2018-01-25T08:22:11.966Z,1011.84
2018-01-25T08:23:20.946Z,1011.82
2018-01-25T08:24:29.776Z,1011.82
2018-01-25T08:25:38.609Z,1011.86
2018-01-25T08:26:47.440Z,1011.84
2018-01-25T08:27:56.273Z,1011.84
2018-01-25T08:29:05.104Z,1011.9
2018-01-25T08:30:13.937Z,1011.92
2018-01-25T08:31:22.767Z,1011.91
2018-01-25T08:32:31.597Z,1012.01
2018-01-25T08:33:40.426Z,1011.97
2018-01-25T08:34:49.259Z,1011.93
2018-01-25T08:35:58.092Z,1011.91
2018-01-25T08:37:06.923Z,1011.89
2018-01-25T08:38:15.761Z,1011.91
2018-01-25T08:39:24.869Z,1011.89
2018-01-25T08:40:33.802Z,1011.96
2018-01-25T08:41:42.634Z,1011.93
2018-01-25T08:42:51.465Z,1011.91
2018-01-25T08:44:00.298Z,1011.92
2018-01-25T08:45:09.131Z,1011.91
2018-01-25T08:46:17.962Z,1011.98
2018-01-25T08:47:26.796Z,1011.97
2018-01-25T08:48:35.658Z,1011.91
2018-01-25T08:49:44.794Z,1011.93
2018-01-25T08:50:53.624Z,1011.97
2018-01-25T08:52:02.557Z,1011.89
2018-01-25T08:53:11.664Z,1011.84
2018-01-25T08:54:20.493Z,1011.9
2018-01-25T08:55:29.325Z,1011.89
2018-01-25T08:56:38.158Z,1011.85
2018-01-25T08:57:47.137Z,1011.84
2018-01-25T08:58:55.969Z,1011.88
2018-01-25T09:00:04.801Z,1011.82
2018-01-25T09:01:13.636Z,1011.83
2018-01-25T09:02:22.469Z,1011.83
2018-01-25T09:03:31.400Z,1011.78
2018-01-25T09:04:40.233Z,1011.84
2018-01-25T09:05:49.342Z,1011.87
2018-01-25T09:06:58.446Z,1011.85
2018-01-25T09:08:07.277Z,1011.82
2018-01-25T09:09:16.257Z,1011.85
2018-01-25T09:10:25.087Z,1011.86
2018-01-25T09:11:33.921Z,1011.88
2018-01-25T09:12:42.752Z,1011.88
2018-01-25T09:13:51.857Z,1011.93
2018-01-25T09:15:01.215Z,1011.93
2018-01-25T09:16:10.046Z,1011.93
2018-01-25T09:17:18.878Z,1011.96
2018-01-25T09:18:27.719Z,1011.93
2018-01-25T09:19:36.821Z,1011.92
2018-01-25T09:20:45.703Z,1011.96
2018-01-25T09:21:54.534Z,1012.04
2018-01-25T09:23:03.367Z,1012
2018-01-25T09:24:12.198Z,1012.1
2018-01-25T09:25:21.029Z,1012.03
2018-01-25T09:26:30.009Z,1012.04
2018-01-25T09:27:38.843Z,1012
2018-01-25T09:28:47.678Z,1012.01
2018-01-25T09:29:56.508Z,1012.08
2018-01-25T09:31:05.341Z,1012.04
2018-01-25T09:32:14.174Z,1012.08
2018-01-25T09:33:23.007Z,1012.07
2018-01-25T09:34:31.841Z,1012.08
2018-01-25T09:35:40.671Z,1012.08
2018-01-25T09:36:49.500Z,1012.13
2018-01-25T09:37:58.387Z,1012.23
2018-01-25T09:39:07.213Z,1012.19
2018-01-25T09:40:16.045Z,1012.27
2018-01-25T09:41:24.876Z,1012.21
2018-01-25T09:42:33.711Z,1012.3
2018-01-25T09:43:42.591Z,1012.33
2018-01-25T09:44:51.422Z,1012.24
2018-01-25T09:46:00.533Z,1012.3
2018-01-25T09:47:09.652Z,1012.33
2018-01-25T09:48:18.484Z,1012.3
2018-01-25T09:49:27.467Z,1012.36
2018-01-25T09:50:36.298Z,1012.38
2018-01-25T09:51:45.129Z,1012.38
2018-01-25T09:52:53.960Z,1012.32
2018-01-25T09:54:02.793Z,1012.36
2018-01-25T09:55:11.674Z,1012.38
2018-01-25T09:56:20.509Z,1012.38
2018-01-25T09:57:29.341Z,1012.37
2018-01-25T09:58:38.177Z,1012.38
2018-01-25T09:59:47.011Z,1012.41
2018-01-25T10:00:56.415Z,1012.45
2018-01-25T10:02:05.248Z,1012.42
2018-01-25T10:03:14.082Z,1012.41
2018-01-25T10:04:23.191Z,1012.39
2018-01-25T10:05:32.022Z,1012.34
2018-01-25T10:06:40.905Z,1012.34
2018-01-25T10:07:49.737Z,1012.4
2018-01-25T10:08:58.568Z,1012.38
2018-01-25T10:10:07.399Z,1012.35
2018-01-25T10:11:16.230Z,1012.36
2018-01-25T10:12:25.467Z,1012.43
2018-01-25T10:13:34.575Z,1012.46
2018-01-25T10:14:43.409Z,1012.48
2018-01-25T10:15:52.240Z,1012.43
2018-01-25T10:17:01.076Z,1012.54
2018-01-25T10:18:10.009Z,1012.47
2018-01-25T10:19:18.841Z,1012.43
2018-01-25T10:20:27.676Z,1012.45
2018-01-25T10:21:36.508Z,1012.49
2018-01-25T10:22:45.343Z,1012.45
2018-01-25T10:23:54.600Z,1012.5
2018-01-25T10:25:03.385Z,1012.44
2018-01-25T10:26:12.218Z,1012.45
2018-01-25T10:27:21.055Z,1012.45
2018-01-25T10:28:29.886Z,1012.46
2018-01-25T10:29:38.970Z,1012.46
2018-01-25T10:30:47.804Z,1012.41
2018-01-25T10:31:56.636Z,1012.41
2018-01-25T10:33:05.471Z,1012.41
2018-01-25T10:34:14.307Z,1012.4
2018-01-25T10:35:23.413Z,1012.41
2018-01-25T10:36:32.245Z,1012.39
2018-01-25T10:37:41.077Z,1012.37
2018-01-25T10:38:49.910Z,1012.38
2018-01-25T10:39:58.744Z,1012.38
2018-01-25T10:41:08.001Z,1012.41
2018-01-25T10:42:16.837Z,1012.38
2018-01-25T10:43:25.719Z,1012.4
2018-01-25T10:44:34.553Z,1012.36
2018-01-25T10:45:43.386Z,1012.44
2018-01-25T10:46:52.520Z,1012.46
2018-01-25T10:48:01.355Z,1012.4
2018-01-25T10:49:10.475Z,1012.4
2018-01-25T10:50:19.302Z,1012.38
2018-01-25T10:51:28.134Z,1012.37
2018-01-25T10:52:37.117Z,1012.38
2018-01-25T10:53:45.950Z,1012.35
2018-01-25T10:54:54.784Z,1012.29
2018-01-25T10:56:03.893Z,1012.35
2018-01-25T10:57:12.730Z,1012.35
2018-01-25T10:58:21.659Z,1012.35
2018-01-25T10:59:30.491Z,1012.36
2018-01-25T11:00:39.600Z,1012.4
2018-01-25T11:01:48.432Z,1012.38
2018-01-25T11:02:57.269Z,1012.4
2018-01-25T11:04:06.251Z,1012.4
2018-01-25T11:05:15.082Z,1012.39
2018-01-25T11:06:23.917Z,1012.39
2018-01-25T11:07:32.751Z,1012.36
2018-01-25T11:08:41.583Z,1012.41
2018-01-25T11:09:50.457Z,1012.39
2018-01-25T11:10:59.257Z,1012.36
2018-01-25T11:12:08.089Z,1012.39
2018-01-25T11:13:16.922Z,1012.39
2018-01-25T11:14:25.753Z,1012.37
2018-01-25T11:15:34.689Z,1012.38
2018-01-25T11:16:43.524Z,1012.38
2018-01-25T11:17:52.357Z,1012.35
2018-01-25T11:19:01.193Z,1012.41
2018-01-25T11:20:10.302Z,1012.37
2018-01-25T11:21:19.134Z,1012.36
2018-01-25T11:22:27.967Z,1012.31
2018-01-25T11:23:36.798Z,1012.33
2018-01-25T11:24:45.632Z,1012.34
2018-01-25T11:25:54.470Z,1012.34
2018-01-25T11:27:03.831Z,1012.37
2018-01-25T11:28:12.663Z,1012.34
2018-01-25T11:29:21.766Z,1012.31
2018-01-25T11:30:30.600Z,1012.34
2018-01-25T11:31:39.450Z,1012.31
2018-01-25T11:32:48.568Z,1012.31
2018-01-25T11:33:57.401Z,1012.31
2018-01-25T11:35:06.233Z,1012.29
2018-01-25T11:36:15.068Z,1012.2
2018-01-25T11:37:23.905Z,1012.18
2018-01-25T11:38:33.013Z,1012.21
2018-01-25T11:39:42.391Z,1012.24
2018-01-25T11:40:51.223Z,1012.19
2018-01-25T11:42:00.058Z,1012.21
2018-01-25T11:43:08.888Z,1012.25
2018-01-25T11:44:17.823Z,1012.21
2018-01-25T11:45:26.656Z,1012.2
2018-01-25T11:46:35.490Z,1012.25
2018-01-25T11:47:44.601Z,1012.26
2018-01-25T11:48:53.442Z,1012.24
2018-01-25T11:50:02.277Z,1012.29
2018-01-25T11:51:11.110Z,1012.31
2018-01-25T11:52:19.983Z,1012.27
2018-01-25T11:53:29.113Z,1012.26
2018-01-25T11:54:38.124Z,1012.2
2018-01-25T11:55:46.979Z,1012.23
2018-01-25T11:56:55.812Z,1012.19
2018-01-25T11:58:04.646Z,1012.19
2018-01-25T11:59:13.481Z,1012.15
2018-01-25T12:00:22.591Z,1012.16
2018-01-25T12:01:31.426Z,1012.21
2018-01-25T12:02:40.533Z,1012.2
2018-01-25T12:03:49.370Z,1012.26
2018-01-25T12:04:58.202Z,1012.2
2018-01-25T12:06:07.036Z,1012.27
2018-01-25T12:07:15.872Z,1012.21
2018-01-25T12:08:24.702Z,1012.29
2018-01-25T12:09:33.547Z,1012.22
2018-01-25T12:10:42.381Z,1012.24
2018-01-25T12:11:51.217Z,1012.26
2018-01-25T12:13:00.052Z,1012.26
2018-01-25T12:14:08.886Z,1012.25
2018-01-25T12:15:17.716Z,1012.28
2018-01-25T12:16:26.550Z,1012.29
2018-01-25T12:17:35.482Z,1012.23
2018-01-25T12:18:44.217Z,1012.23
2018-01-25T12:19:53.051Z,1012.24
2018-01-25T12:21:02.033Z,1012.23
2018-01-25T12:22:10.868Z,1012.2
2018-01-25T12:23:19.975Z,1012.22
2018-01-25T12:24:28.811Z,1012.2
2018-01-25T12:25:37.646Z,1012.17
2018-01-25T12:26:47.071Z,1012.15
2018-01-25T12:27:55.904Z,1012.11
2018-01-25T12:29:04.781Z,1012.13
2018-01-25T12:30:13.616Z,1012.17
2018-01-25T12:31:22.477Z,1012.21
2018-01-25T12:32:31.786Z,1012.12
2018-01-25T12:33:40.597Z,1012.1
2018-01-25T12:34:49.433Z,1012.09
2018-01-25T12:35:58.268Z,1012.07
2018-01-25T12:37:07.107Z,1012.02
2018-01-25T12:38:15.985Z,1012.05
2018-01-25T12:39:24.818Z,1012.01
2018-01-25T12:40:33.652Z,1012.01
2018-01-25T12:41:42.486Z,1012
2018-01-25T12:42:51.319Z,1012.06
2018-01-25T12:44:00.153Z,1011.92
2018-01-25T12:45:08.988Z,1011.99
2018-01-25T12:46:17.836Z,1011.95
2018-01-25T12:47:26.655Z,1011.94
2018-01-25T12:48:35.488Z,1011.92
2018-01-25T12:49:44.470Z,1011.93
2018-01-25T12:50:53.304Z,1011.92
2018-01-25T12:52:02.138Z,1011.95
2018-01-25T12:53:10.974Z,1011.89
2018-01-25T12:54:19.806Z,1011.91
2018-01-25T12:55:28.790Z,1011.87
2018-01-25T12:56:37.624Z,1011.88
2018-01-25T12:57:46.473Z,1011.87
2018-01-25T12:58:55.306Z,1011.86
2018-01-25T13:00:04.141Z,1011.88
2018-01-25T13:01:13.228Z,1011.83
2018-01-25T13:02:22.066Z,1011.84
2018-01-25T13:03:30.898Z,1011.83
2018-01-25T13:04:39.733Z,1011.83
2018-01-25T13:05:48.566Z,1011.78
2018-01-25T13:06:57.400Z,1011.8
2018-01-25T13:08:06.234Z,1011.78
2018-01-25T13:09:15.066Z,1011.78
2018-01-25T13:10:23.900Z,1011.81
2018-01-25T13:11:32.736Z,1011.77
2018-01-25T13:12:41.669Z,1011.74
2018-01-25T13:13:50.502Z,1011.75
2018-01-25T13:14:59.337Z,1011.72
2018-01-25T13:16:08.169Z,1011.7
2018-01-25T13:17:17.003Z,1011.77
2018-01-25T13:18:26.210Z,1011.76
2018-01-25T13:19:35.044Z,1011.8
2018-01-25T13:20:43.878Z,1011.83
2018-01-25T13:21:52.709Z,1011.84
2018-01-25T13:23:01.543Z,1011.85
2018-01-25T13:24:10.536Z,1011.82
2018-01-25T13:25:19.367Z,1011.82
2018-01-25T13:26:28.201Z,1011.83
2018-01-25T13:27:37.035Z,1011.77
2018-01-25T13:28:45.870Z,1011.73
2018-01-25T13:29:54.802Z,1011.72
2018-01-25T13:31:03.687Z,1011.73
2018-01-25T13:32:12.522Z,1011.71
2018-01-25T13:33:21.356Z,1011.78
2018-01-25T13:34:30.190Z,1011.65
2018-01-25T13:35:39.076Z,1011.63
2018-01-25T13:36:47.911Z,1011.63
2018-01-25T13:37:56.745Z,1011.66
2018-01-25T13:39:05.578Z,1011.7
2018-01-25T13:40:14.429Z,1011.68
2018-01-25T13:41:23.349Z,1011.67
2018-01-25T13:42:32.184Z,1011.63
2018-01-25T13:43:41.019Z,1011.65
2018-01-25T13:44:49.853Z,1011.65
2018-01-25T13:45:58.685Z,1011.68
2018-01-25T13:47:07.620Z,1011.67
2018-01-25T13:48:16.454Z,1011.71
2018-01-25T13:49:25.288Z,1011.69
2018-01-25T13:50:34.392Z,1011.68
2018-01-25T13:51:43.227Z,1011.65
2018-01-25T13:52:52.162Z,1011.65
2018-01-25T13:54:00.996Z,1011.67
2018-01-25T13:55:09.832Z,1011.7
2018-01-25T13:56:18.664Z,1011.74